createdAt,value
2023-05-31T00:00:30.894Z,3.54
2023-05-31T00:01:30.933Z,3.17
2023-05-31T00:02:31.142Z,2.61
2023-05-31T00:03:31.122Z,2.92
2023-05-31T00:04:31.126Z,3.40
2023-05-31T00:05:31.192Z,2.93
2023-05-31T00:06:31.220Z,3.52
2023-05-31T00:07:31.276Z,3.11
2023-05-31T00:08:31.356Z,2.95
2023-05-31T00:09:31.398Z,3.33
2023-05-31T00:10:31.446Z,2.60
2023-05-31T00:11:31.508Z,2.95
2023-05-31T00:12:31.565Z,3.17
2023-05-31T00:13:31.599Z,3.68
2023-05-31T00:14:31.677Z,3.82
2023-05-31T00:15:31.708Z,3.13
2023-05-31T00:17:03.377Z,3.28
2023-05-31T00:18:32.857Z,2.91
2023-05-31T00:19:31.757Z,2.97
2023-05-31T00:20:31.806Z,2.81
2023-05-31T00:21:31.722Z,3.21
2023-05-31T00:22:31.725Z,3.43
2023-05-31T00:23:31.771Z,2.56
2023-05-31T00:24:31.704Z,2.93
2023-05-31T00:25:31.706Z,3.23
2023-05-31T00:26:31.726Z,2.88
2023-05-31T00:27:31.736Z,3.40
2023-05-31T00:28:31.813Z,2.99
2023-05-31T00:29:31.718Z,2.99
2023-05-31T00:30:31.709Z,2.53
2023-05-31T00:31:31.774Z,3.07
2023-05-31T00:32:31.693Z,3.17
2023-05-31T00:33:31.664Z,3.01
2023-05-31T00:34:31.681Z,3.31
2023-05-31T00:35:31.658Z,3.08
2023-05-31T00:36:31.703Z,3.01
2023-05-31T00:37:31.631Z,2.70
2023-05-31T00:38:31.635Z,2.82
2023-05-31T00:39:31.721Z,3.41
2023-05-31T00:40:31.747Z,3.23
2023-05-31T00:41:31.840Z,3.74
2023-05-31T00:42:31.905Z,3.01
2023-05-31T00:43:31.913Z,3.26
2023-05-31T00:44:32.009Z,3.33
2023-05-31T00:45:32.039Z,3.15
2023-05-31T00:46:32.114Z,3.71
2023-05-31T00:47:32.207Z,3.13
2023-05-31T00:48:32.243Z,2.95
2023-05-31T00:49:32.299Z,3.47
2023-05-31T00:50:32.336Z,3.18
2023-05-31T00:51:32.401Z,2.85
2023-05-31T00:52:32.491Z,2.99
2023-05-31T00:53:32.536Z,3.77
2023-05-31T00:54:32.571Z,3.53
2023-05-31T00:55:32.647Z,3.00
2023-05-31T00:56:32.702Z,3.33
2023-05-31T00:57:32.769Z,2.91
2023-05-31T00:58:32.846Z,3.55
2023-05-31T00:59:32.912Z,3.19
2023-05-31T01:00:32.941Z,3.19
2023-05-31T01:01:33.008Z,3.20
2023-05-31T01:02:33.108Z,2.69
2023-05-31T01:03:33.161Z,3.03
2023-05-31T01:04:33.195Z,3.10
2023-05-31T01:05:33.254Z,2.81
2023-05-31T01:06:33.668Z,2.60
2023-05-31T01:07:33.409Z,3.53
2023-05-31T01:08:33.455Z,2.89
2023-05-31T01:09:33.511Z,3.25
2023-05-31T01:10:33.569Z,3.22
2023-05-31T01:11:33.649Z,2.82
2023-05-31T01:12:33.691Z,3.32
2023-05-31T01:13:33.721Z,3.18
2023-05-31T01:14:33.757Z,3.78
2023-05-31T01:15:33.816Z,3.54
2023-05-31T01:16:33.899Z,3.50
2023-05-31T01:17:33.945Z,3.16
2023-05-31T01:18:34.011Z,3.36
2023-05-31T01:19:34.056Z,3.38
2023-05-31T01:20:34.319Z,3.21
2023-05-31T01:21:34.108Z,3.08
2023-05-31T01:22:34.174Z,3.15
2023-05-31T01:23:35.354Z,3.07
2023-05-31T01:24:34.178Z,3.30
2023-05-31T01:25:34.178Z,3.30
2023-05-31T01:26:34.171Z,2.90
2023-05-31T01:27:34.156Z,2.81
2023-05-31T01:28:34.137Z,2.75
2023-05-31T01:29:34.112Z,3.69
2023-05-31T01:30:34.142Z,2.52
2023-05-31T01:31:34.131Z,3.33
2023-05-31T01:32:34.202Z,2.41
2023-05-31T01:33:34.113Z,2.96
2023-05-31T01:34:34.102Z,3.07
2023-05-31T01:35:34.083Z,3.22
2023-05-31T01:36:34.114Z,2.81
2023-05-31T01:37:34.064Z,2.99
2023-05-31T01:38:34.077Z,3.17
2023-05-31T01:39:34.092Z,3.19
2023-05-31T01:40:34.046Z,2.75
2023-05-31T01:41:34.045Z,3.02
2023-05-31T01:42:34.056Z,3.03
2023-05-31T01:43:34.065Z,2.94
2023-05-31T01:44:34.054Z,3.27
2023-05-31T01:45:34.050Z,3.12
2023-05-31T01:46:34.024Z,2.73
2023-05-31T01:47:34.132Z,2.96
2023-05-31T01:48:34.004Z,2.86
2023-05-31T01:49:33.979Z,2.61
2023-05-31T01:50:34.015Z,2.86
2023-05-31T01:51:34.016Z,3.41
2023-05-31T01:52:33.985Z,3.26
2023-05-31T01:53:33.974Z,3.56
2023-05-31T01:54:33.950Z,3.27
2023-05-31T01:55:33.964Z,3.02
2023-05-31T01:56:33.944Z,2.90
2023-05-31T01:57:33.931Z,3.18
2023-05-31T01:58:33.911Z,3.42
2023-05-31T01:59:33.931Z,2.61
2023-05-31T02:00:33.925Z,2.73
2023-05-31T02:01:33.982Z,3.00
2023-05-31T02:02:33.970Z,2.74
2023-05-31T02:03:33.959Z,3.21
2023-05-31T02:04:33.907Z,3.28
2023-05-31T02:05:33.894Z,3.19
2023-05-31T02:06:33.886Z,2.67
2023-05-31T02:07:33.881Z,3.23
2023-05-31T02:08:33.856Z,2.48
2023-05-31T02:09:33.860Z,2.78
2023-05-31T02:10:33.851Z,3.15
2023-05-31T02:11:33.851Z,3.12
2023-05-31T02:12:33.843Z,3.40
2023-05-31T02:13:33.828Z,3.17
2023-05-31T02:14:33.823Z,3.07
2023-05-31T02:15:33.847Z,3.79
2023-05-31T02:16:33.840Z,2.83
2023-05-31T02:17:33.826Z,3.12
2023-05-31T02:18:33.812Z,2.65
2023-05-31T02:19:33.802Z,2.41
2023-05-31T02:20:33.885Z,2.90
2023-05-31T02:21:33.761Z,3.03
2023-05-31T02:22:33.796Z,3.40
2023-05-31T02:23:33.805Z,2.95
2023-05-31T02:24:33.783Z,3.20
2023-05-31T02:25:33.848Z,3.27
2023-05-31T02:26:33.855Z,2.95
2023-05-31T02:27:33.860Z,3.47
2023-05-31T02:28:33.867Z,3.02
2023-05-31T02:29:33.874Z,2.99
2023-05-31T02:30:33.879Z,2.56
2023-05-31T02:31:33.945Z,2.46
2023-05-31T02:32:33.916Z,3.03
2023-05-31T02:33:33.899Z,3.25
2023-05-31T02:34:33.919Z,3.88
2023-05-31T02:35:33.914Z,2.98
2023-05-31T02:36:33.937Z,2.90
2023-05-31T02:37:33.925Z,2.58
2023-05-31T02:38:33.934Z,3.42
2023-05-31T02:39:33.944Z,3.03
2023-05-31T02:40:33.946Z,3.18
2023-05-31T02:41:33.936Z,3.71
2023-05-31T02:42:33.966Z,2.81
2023-05-31T02:43:33.983Z,2.98
2023-05-31T02:44:33.971Z,3.08
2023-05-31T02:45:33.991Z,2.67
2023-05-31T02:46:34.036Z,3.44
2023-05-31T02:47:33.965Z,3.08
2023-05-31T02:48:33.974Z,3.13
2023-05-31T02:49:33.990Z,2.82
2023-05-31T02:50:33.971Z,3.25
2023-05-31T02:51:33.986Z,3.35
2023-05-31T02:52:33.987Z,3.04
2023-05-31T02:53:33.959Z,2.50
2023-05-31T02:54:33.977Z,3.37
2023-05-31T02:55:34.023Z,2.94
2023-05-31T02:56:34.007Z,3.30
2023-05-31T02:57:34.027Z,3.06
2023-05-31T02:58:34.032Z,3.13
2023-05-31T02:59:34.036Z,2.79
2023-05-31T03:00:34.048Z,3.02
2023-05-31T03:01:34.087Z,3.23
2023-05-31T03:02:34.108Z,2.71
2023-05-31T03:03:34.107Z,2.93
2023-05-31T03:04:34.029Z,3.10
2023-05-31T03:05:34.055Z,3.14
2023-05-31T03:06:34.092Z,2.94
2023-05-31T03:07:34.054Z,3.04
2023-05-31T03:08:34.066Z,3.19
2023-05-31T03:09:34.064Z,2.50
2023-05-31T03:10:34.058Z,3.30
2023-05-31T03:11:34.074Z,3.17
2023-05-31T03:12:34.089Z,3.07
2023-05-31T03:13:34.085Z,3.36
2023-05-31T03:14:34.099Z,3.17
2023-05-31T03:15:34.087Z,2.96
2023-05-31T03:16:34.144Z,3.00
2023-05-31T03:17:34.137Z,2.96
2023-05-31T03:18:34.123Z,3.01
2023-05-31T03:19:34.116Z,3.43
2023-05-31T03:20:34.231Z,3.08
2023-05-31T03:21:34.092Z,2.54
2023-05-31T03:22:34.072Z,3.54
2023-05-31T03:23:34.090Z,3.15
2023-05-31T03:24:34.121Z,3.72
2023-05-31T03:25:34.116Z,2.90
2023-05-31T03:26:34.136Z,3.24
2023-05-31T03:27:34.145Z,3.59
2023-05-31T03:28:34.153Z,2.99
2023-05-31T03:29:34.156Z,3.39
2023-05-31T03:30:34.165Z,3.27
2023-05-31T03:31:34.232Z,3.33
2023-05-31T03:32:35.475Z,2.76
2023-05-31T03:33:34.187Z,3.18
2023-05-31T03:34:34.204Z,2.96
2023-05-31T03:35:34.192Z,2.79
2023-05-31T03:36:34.193Z,3.22
2023-05-31T03:37:34.168Z,2.85
2023-05-31T03:38:34.166Z,2.64
2023-05-31T03:39:34.181Z,3.06
2023-05-31T03:40:34.157Z,3.40
2023-05-31T03:41:34.133Z,3.24
2023-05-31T03:42:34.142Z,3.31
2023-05-31T03:43:34.148Z,2.64
2023-05-31T03:44:34.118Z,3.19
2023-05-31T03:45:34.119Z,2.84
2023-05-31T03:46:34.149Z,3.11
2023-05-31T03:47:34.114Z,2.96
2023-05-31T03:48:34.093Z,2.69
2023-05-31T03:49:34.098Z,2.77
2023-05-31T03:50:34.089Z,2.74
2023-05-31T03:51:34.078Z,3.08
2023-05-31T03:52:34.064Z,3.02
2023-05-31T03:53:34.056Z,2.91
2023-05-31T03:54:34.058Z,2.98
2023-05-31T03:55:34.071Z,3.27
2023-05-31T03:56:34.035Z,2.95
2023-05-31T03:57:34.034Z,3.31
2023-05-31T03:58:34.049Z,3.01
2023-05-31T03:59:34.019Z,3.11
2023-05-31T04:00:34.002Z,3.19
2023-05-31T04:01:34.021Z,2.95
2023-05-31T04:02:34.109Z,3.01
2023-05-31T04:03:34.117Z,3.14
2023-05-31T04:04:34.071Z,2.98
2023-05-31T04:05:33.984Z,3.28
2023-05-31T04:06:34.009Z,2.92
2023-05-31T04:07:33.988Z,3.51
2023-05-31T04:08:33.955Z,3.12
2023-05-31T04:09:33.956Z,2.85
2023-05-31T04:10:33.970Z,3.23
2023-05-31T04:11:33.945Z,3.07
2023-05-31T04:12:33.951Z,2.55
2023-05-31T04:13:33.949Z,2.74
2023-05-31T04:14:33.920Z,3.19
2023-05-31T04:15:33.898Z,2.86
2023-05-31T04:16:34.016Z,3.01
2023-05-31T04:17:33.935Z,3.06
2023-05-31T04:18:33.876Z,3.08
2023-05-31T04:19:33.896Z,2.50
2023-05-31T04:20:33.939Z,2.85
2023-05-31T04:21:33.903Z,3.09
2023-05-31T04:22:33.853Z,3.14
2023-05-31T04:23:33.862Z,2.85
2023-05-31T04:24:33.834Z,3.73
2023-05-31T04:25:33.858Z,3.34
2023-05-31T04:26:33.833Z,3.36
2023-05-31T04:27:33.818Z,3.30
2023-05-31T04:28:33.807Z,3.19
2023-05-31T04:29:33.844Z,2.85
2023-05-31T04:30:33.948Z,2.97
2023-05-31T04:31:49.951Z,3.11
2023-05-31T04:32:34.914Z,2.59
2023-05-31T04:33:33.783Z,3.52
2023-05-31T04:34:33.807Z,3.32
2023-05-31T04:35:33.748Z,2.98
2023-05-31T04:36:33.772Z,2.92
2023-05-31T04:37:35.850Z,3.75
2023-05-31T04:38:33.763Z,3.00
2023-05-31T04:39:33.770Z,2.80
2023-05-31T04:40:33.768Z,3.16
2023-05-31T04:41:33.740Z,2.77
2023-05-31T04:42:33.733Z,3.00
2023-05-31T04:43:33.717Z,2.71
2023-05-31T04:44:33.705Z,2.96
2023-05-31T04:45:33.898Z,2.56
2023-05-31T04:46:33.724Z,2.43
2023-05-31T04:47:33.698Z,2.82
2023-05-31T04:48:33.690Z,2.61
2023-05-31T04:49:43.534Z,3.25
2023-05-31T04:50:34.672Z,3.12
2023-05-31T04:51:33.674Z,3.33
2023-05-31T04:52:33.692Z,4.37
2023-05-31T04:53:33.645Z,3.57
2023-05-31T04:54:33.662Z,3.48
2023-05-31T04:55:33.642Z,3.09
2023-05-31T04:56:33.625Z,3.66
2023-05-31T04:57:33.611Z,3.48
2023-05-31T04:58:33.606Z,3.38
2023-05-31T04:59:33.618Z,3.15
2023-05-31T05:00:33.663Z,3.71
2023-05-31T05:01:33.689Z,3.07
2023-05-31T05:02:33.772Z,2.97
2023-05-31T05:03:33.865Z,3.10
2023-05-31T05:04:33.857Z,3.33
2023-05-31T05:05:33.861Z,2.52
2023-05-31T05:06:33.975Z,2.98
2023-05-31T05:07:33.973Z,3.48
2023-05-31T05:08:34.056Z,2.84
2023-05-31T05:09:34.095Z,2.55
2023-05-31T05:10:34.152Z,2.77
2023-05-31T05:11:34.188Z,2.94
2023-05-31T05:12:34.224Z,3.03
2023-05-31T05:13:34.273Z,3.33
2023-05-31T05:14:34.275Z,3.02
2023-05-31T05:15:34.314Z,2.75
2023-05-31T05:16:34.332Z,2.82
2023-05-31T05:17:34.389Z,2.58
2023-05-31T05:18:34.334Z,2.39
2023-05-31T05:19:34.352Z,2.89
2023-05-31T05:20:34.371Z,2.89
2023-05-31T05:21:34.375Z,3.18
2023-05-31T05:22:34.369Z,2.80
2023-05-31T05:23:34.470Z,2.74
2023-05-31T05:24:34.367Z,2.20
2023-05-31T05:25:34.385Z,2.57
2023-05-31T05:26:34.402Z,2.06
2023-05-31T05:27:34.393Z,2.67
2023-05-31T05:28:34.419Z,2.63
2023-05-31T05:29:34.444Z,2.57
2023-05-31T05:30:34.472Z,2.49
2023-05-31T05:31:34.592Z,2.38
2023-05-31T05:32:34.608Z,2.42
2023-05-31T05:33:34.566Z,2.44
2023-05-31T05:34:34.572Z,2.23
2023-05-31T05:35:34.562Z,2.56
2023-05-31T05:36:34.638Z,2.43
2023-05-31T05:37:34.652Z,1.80
2023-05-31T05:38:34.911Z,2.05
2023-05-31T05:39:34.911Z,2.07
2023-05-31T05:40:35.635Z,2.43
2023-05-31T05:41:35.451Z,2.05
2023-05-31T05:42:34.936Z,2.47
2023-05-31T05:43:35.037Z,1.91
2023-05-31T05:44:35.061Z,2.82
2023-05-31T05:45:35.047Z,2.04
2023-05-31T05:46:35.164Z,2.16
2023-05-31T05:47:35.196Z,1.90
2023-05-31T05:48:35.234Z,2.36
2023-05-31T05:49:35.290Z,2.32
2023-05-31T05:50:35.357Z,2.18
2023-05-31T05:51:35.397Z,1.92
2023-05-31T05:52:35.461Z,2.34
2023-05-31T05:53:35.512Z,2.06
2023-05-31T05:54:36.872Z,2.25
2023-05-31T05:55:35.635Z,2.28
2023-05-31T05:56:35.709Z,2.33
2023-05-31T05:57:35.751Z,2.51
2023-05-31T05:58:35.804Z,2.99
2023-05-31T05:59:35.858Z,2.25
2023-05-31T06:00:35.901Z,2.71
2023-05-31T06:01:36.466Z,2.98
2023-05-31T06:02:36.040Z,1.79
2023-05-31T06:03:36.147Z,2.55
2023-05-31T06:04:36.113Z,2.81
2023-05-31T06:05:36.127Z,2.30
2023-05-31T06:06:36.152Z,2.62
2023-05-31T06:07:36.162Z,2.45
2023-05-31T06:08:36.189Z,2.76
2023-05-31T06:09:36.196Z,2.56
2023-05-31T06:10:36.260Z,2.77
2023-05-31T06:11:36.273Z,2.24
2023-05-31T06:12:36.266Z,2.34
2023-05-31T06:13:36.324Z,2.43
2023-05-31T06:14:36.350Z,2.53
2023-05-31T06:15:36.350Z,2.47
2023-05-31T06:16:36.510Z,2.13
2023-05-31T06:17:36.392Z,2.18
2023-05-31T06:18:36.392Z,2.31
2023-05-31T06:19:36.440Z,2.39
2023-05-31T06:20:36.667Z,2.55
2023-05-31T06:21:36.854Z,2.52
2023-05-31T06:22:36.597Z,2.52
2023-05-31T06:23:36.664Z,2.35
2023-05-31T06:24:36.657Z,2.32
2023-05-31T06:25:36.613Z,2.45
2023-05-31T06:26:36.655Z,2.38
2023-05-31T06:27:36.659Z,2.01
2023-05-31T06:28:37.918Z,2.12
2023-05-31T06:29:36.755Z,3.52
2023-05-31T06:30:36.811Z,2.01
2023-05-31T06:31:36.828Z,1.97
2023-05-31T06:32:36.850Z,1.99
2023-05-31T06:33:36.830Z,1.94
2023-05-31T06:34:36.853Z,1.69
2023-05-31T06:35:36.900Z,1.87
2023-05-31T06:36:36.936Z,2.34
2023-05-31T06:37:36.948Z,2.39
2023-05-31T06:38:36.997Z,2.53
2023-05-31T06:39:37.016Z,2.61
2023-05-31T06:40:37.056Z,2.45
2023-05-31T06:41:37.101Z,2.14
2023-05-31T06:42:37.125Z,2.10
2023-05-31T06:43:37.175Z,2.23
2023-05-31T06:44:44.125Z,1.83
2023-05-31T06:45:38.442Z,2.17
2023-05-31T06:46:37.526Z,1.84
2023-05-31T06:47:37.550Z,2.56
2023-05-31T06:48:37.588Z,2.22
2023-05-31T06:49:37.663Z,2.30
2023-05-31T06:50:37.705Z,1.87
2023-05-31T06:51:37.726Z,2.18
2023-05-31T06:52:37.713Z,2.60
2023-05-31T06:53:37.754Z,2.63
2023-05-31T06:54:37.769Z,2.66
2023-05-31T06:55:40.023Z,2.59
2023-05-31T06:56:37.871Z,2.27
2023-05-31T06:57:38.404Z,2.45
2023-05-31T06:58:37.873Z,2.83
2023-05-31T06:59:37.894Z,2.73
2023-05-31T07:00:37.852Z,2.64
2023-05-31T07:01:37.998Z,2.29
2023-05-31T07:02:37.866Z,2.91
2023-05-31T07:03:37.966Z,2.32
2023-05-31T07:04:37.938Z,2.42
2023-05-31T07:05:37.956Z,2.58
2023-05-31T07:06:37.959Z,2.51
2023-05-31T07:07:37.981Z,2.79
2023-05-31T07:08:37.993Z,2.53
2023-05-31T07:09:37.990Z,2.87
2023-05-31T07:10:38.071Z,2.33
2023-05-31T07:11:38.069Z,2.46
2023-05-31T07:12:38.100Z,2.50
2023-05-31T07:13:38.081Z,2.53
2023-05-31T07:14:38.149Z,2.29
2023-05-31T07:15:38.363Z,2.02
2023-05-31T07:16:38.386Z,2.66
2023-05-31T07:17:38.294Z,2.02
2023-05-31T07:18:38.274Z,2.48
2023-05-31T07:19:38.350Z,2.63
2023-05-31T07:20:38.398Z,2.02
2023-05-31T07:21:38.415Z,2.67
2023-05-31T07:22:38.461Z,2.20
2023-05-31T07:23:38.467Z,2.64
2023-05-31T07:24:38.475Z,2.55
2023-05-31T07:25:38.484Z,2.94
2023-05-31T07:26:38.512Z,2.49
2023-05-31T07:27:38.560Z,2.33
2023-05-31T07:28:38.564Z,2.72
2023-05-31T07:29:38.607Z,2.76
2023-05-31T07:30:38.642Z,2.73
2023-05-31T07:31:38.672Z,2.51
2023-05-31T07:32:38.787Z,2.79
2023-05-31T07:33:38.719Z,3.71
2023-05-31T07:34:38.673Z,2.71
2023-05-31T07:35:39.677Z,2.94
2023-05-31T07:36:38.666Z,2.90
2023-05-31T07:37:39.166Z,2.48
2023-05-31T07:38:38.647Z,2.58
2023-05-31T07:39:38.636Z,2.33
2023-05-31T07:40:38.632Z,2.95
2023-05-31T07:41:38.928Z,2.57
2023-05-31T07:42:38.619Z,2.45
2023-05-31T07:43:38.605Z,2.28
2023-05-31T07:44:38.617Z,2.28
2023-05-31T07:45:38.589Z,2.43
2023-05-31T07:46:38.610Z,2.77
2023-05-31T07:47:38.601Z,3.17
2023-05-31T07:48:38.647Z,3.44
2023-05-31T07:49:38.581Z,3.62
2023-05-31T07:50:38.633Z,3.41
2023-05-31T07:51:38.931Z,3.84
2023-05-31T07:52:38.570Z,4.16
2023-05-31T07:53:38.589Z,2.99
2023-05-31T07:54:38.543Z,4.27
2023-05-31T07:55:38.548Z,3.34
2023-05-31T07:56:39.444Z,3.89
2023-05-31T07:57:38.521Z,3.15
2023-05-31T07:58:38.514Z,3.10
2023-05-31T07:59:39.427Z,3.61
2023-05-31T08:00:38.492Z,3.35
2023-05-31T08:01:38.937Z,3.39
2023-05-31T08:02:38.791Z,3.10
2023-05-31T08:03:38.786Z,3.72
2023-05-31T08:04:39.648Z,3.36
2023-05-31T08:05:38.640Z,3.41
2023-05-31T08:06:38.630Z,3.11
2023-05-31T08:07:38.642Z,3.06
2023-05-31T08:08:38.635Z,4.15
2023-05-31T08:09:38.639Z,3.27
2023-05-31T08:10:38.605Z,3.28
2023-05-31T08:11:38.583Z,3.00
2023-05-31T08:12:38.625Z,3.11
2023-05-31T08:13:38.657Z,2.71
2023-05-31T08:14:38.730Z,3.18
2023-05-31T08:15:38.793Z,3.01
2023-05-31T08:16:38.974Z,3.15
2023-05-31T08:17:38.951Z,3.69
2023-05-31T08:18:38.994Z,3.16
2023-05-31T08:19:39.006Z,3.13
2023-05-31T08:20:39.155Z,3.02
2023-05-31T08:21:39.428Z,3.02
2023-05-31T08:22:39.121Z,3.34
2023-05-31T08:23:39.150Z,2.69
2023-05-31T08:24:39.234Z,3.01
2023-05-31T08:25:39.278Z,3.13
2023-05-31T08:26:39.436Z,2.75
2023-05-31T08:27:39.435Z,2.88
2023-05-31T08:28:39.482Z,2.81
2023-05-31T08:29:39.526Z,2.78
2023-05-31T08:30:39.678Z,2.56
2023-05-31T08:31:40.100Z,3.10
2023-05-31T08:32:39.697Z,3.07
2023-05-31T08:33:39.756Z,2.96
2023-05-31T08:34:39.804Z,2.63
2023-05-31T08:35:39.860Z,2.86
2023-05-31T08:36:39.922Z,3.61
2023-05-31T08:37:39.945Z,3.35
2023-05-31T08:38:39.982Z,3.56
2023-05-31T08:39:40.046Z,3.20
2023-05-31T08:40:40.092Z,2.85
2023-05-31T08:41:40.153Z,2.93
2023-05-31T08:42:40.126Z,3.15
2023-05-31T08:43:40.211Z,3.29
2023-05-31T08:44:40.249Z,3.29
2023-05-31T08:45:40.319Z,4.16
2023-05-31T08:46:40.422Z,4.28
2023-05-31T08:47:40.441Z,3.77
2023-05-31T08:48:40.480Z,3.92
2023-05-31T08:49:40.551Z,3.29
2023-05-31T08:50:40.596Z,3.96
2023-05-31T08:51:40.936Z,3.60
2023-05-31T08:52:40.653Z,3.09
2023-05-31T08:53:40.667Z,3.01
2023-05-31T08:54:40.683Z,3.01
2023-05-31T08:55:40.717Z,3.04
2023-05-31T08:56:44.144Z,3.15
2023-05-31T08:57:40.695Z,2.83
2023-05-31T08:58:40.726Z,2.61
2023-05-31T08:59:40.742Z,3.51
2023-05-31T09:00:40.714Z,2.95
2023-05-31T09:01:40.722Z,2.98
2023-05-31T09:02:40.694Z,2.84
2023-05-31T09:03:40.653Z,2.32
2023-05-31T09:04:40.719Z,3.14
2023-05-31T09:05:40.677Z,3.07
2023-05-31T09:06:40.632Z,2.44
2023-05-31T09:07:40.654Z,2.62
2023-05-31T09:08:40.651Z,2.20
2023-05-31T09:09:40.632Z,3.03
2023-05-31T09:10:40.649Z,2.96
2023-05-31T09:11:40.640Z,2.56
2023-05-31T09:12:40.607Z,2.35
2023-05-31T09:13:40.607Z,2.41
2023-05-31T09:14:40.589Z,2.54
2023-05-31T09:15:40.589Z,2.07
2023-05-31T09:16:40.633Z,2.23
2023-05-31T09:17:40.676Z,2.12
2023-05-31T09:18:40.670Z,2.21
2023-05-31T09:19:40.548Z,2.14
2023-05-31T09:20:40.558Z,2.78
2023-05-31T09:21:40.577Z,2.46
2023-05-31T09:22:40.542Z,2.47
2023-05-31T09:23:40.548Z,2.61
2023-05-31T09:24:40.542Z,1.98
2023-05-31T09:25:40.523Z,2.04
2023-05-31T09:26:40.532Z,2.64
2023-05-31T09:27:40.538Z,2.10
2023-05-31T09:28:40.515Z,2.34
2023-05-31T09:29:40.523Z,2.18
2023-05-31T09:30:40.511Z,2.03
2023-05-31T09:31:40.952Z,2.33
2023-05-31T09:32:40.518Z,2.30
2023-05-31T09:33:40.488Z,2.04
2023-05-31T09:34:40.468Z,1.73
2023-05-31T09:35:40.469Z,2.10
2023-05-31T09:36:40.973Z,2.03
2023-05-31T09:37:40.463Z,2.14
2023-05-31T09:38:40.456Z,2.05
2023-05-31T09:39:40.431Z,2.17
2023-05-31T09:40:40.431Z,2.23
2023-05-31T09:41:40.406Z,2.00
2023-05-31T09:42:40.404Z,2.31
2023-05-31T09:43:40.397Z,2.63
2023-05-31T09:44:40.381Z,2.11
2023-05-31T09:45:40.430Z,2.15
2023-05-31T09:46:40.401Z,1.74
2023-05-31T09:47:40.498Z,2.14
2023-05-31T09:48:40.484Z,2.15
2023-05-31T09:49:40.539Z,2.10
2023-05-31T09:50:40.571Z,2.50
2023-05-31T09:51:40.987Z,1.99
2023-05-31T09:52:40.661Z,2.22
2023-05-31T09:53:40.712Z,2.26
2023-05-31T09:54:40.736Z,2.17
2023-05-31T09:55:40.796Z,2.27
2023-05-31T09:56:40.864Z,1.83
2023-05-31T09:57:40.874Z,2.04
2023-05-31T09:58:40.930Z,1.88
2023-05-31T09:59:40.958Z,2.18
2023-05-31T10:00:41.015Z,1.84
2023-05-31T10:01:41.507Z,2.13
2023-05-31T10:02:41.207Z,2.38
2023-05-31T10:03:41.219Z,2.64
2023-05-31T10:04:41.222Z,2.10
2023-05-31T10:05:41.278Z,2.34
2023-05-31T10:06:41.448Z,2.35
2023-05-31T10:07:41.400Z,2.35
2023-05-31T10:08:41.387Z,2.02
2023-05-31T10:09:41.419Z,2.64
2023-05-31T10:10:41.467Z,2.15
2023-05-31T10:11:41.967Z,1.77
2023-05-31T10:12:41.563Z,1.83
2023-05-31T10:13:41.634Z,1.99
2023-05-31T10:14:41.679Z,1.98
2023-05-31T10:15:41.745Z,2.08
2023-05-31T10:16:41.746Z,2.50
2023-05-31T10:17:42.011Z,2.14
2023-05-31T10:18:41.815Z,1.91
2023-05-31T10:19:41.894Z,2.56
2023-05-31T10:20:41.938Z,2.05
2023-05-31T10:21:41.990Z,1.92
2023-05-31T10:22:42.478Z,1.96
2023-05-31T10:23:42.112Z,1.99
2023-05-31T10:24:42.125Z,2.17
2023-05-31T10:25:42.174Z,2.36
2023-05-31T10:26:42.229Z,2.17
2023-05-31T10:27:42.472Z,2.06
2023-05-31T10:28:42.304Z,2.11
2023-05-31T10:29:42.962Z,1.83
2023-05-31T10:30:42.395Z,2.08
2023-05-31T10:31:42.443Z,2.15
2023-05-31T10:32:42.487Z,2.36
2023-05-31T10:33:42.483Z,2.31
2023-05-31T10:34:42.527Z,2.20
2023-05-31T10:35:42.613Z,2.18
2023-05-31T10:36:42.633Z,2.04
2023-05-31T10:37:43.001Z,1.77
2023-05-31T10:38:42.713Z,1.91
2023-05-31T10:39:42.772Z,2.40
2023-05-31T10:40:43.823Z,1.96
2023-05-31T10:41:42.885Z,2.39
2023-05-31T10:42:42.991Z,2.35
2023-05-31T10:43:43.019Z,2.68
2023-05-31T10:44:42.995Z,3.93
2023-05-31T10:45:43.068Z,3.79
2023-05-31T10:46:43.198Z,4.83
2023-05-31T10:47:43.516Z,5.20
2023-05-31T10:48:43.174Z,4.82
2023-05-31T10:49:43.214Z,5.88
2023-05-31T10:50:43.214Z,4.59
2023-05-31T10:51:43.237Z,5.47
2023-05-31T10:52:43.244Z,4.73
2023-05-31T10:53:43.200Z,4.86
2023-05-31T10:54:43.208Z,4.68
2023-05-31T10:55:43.253Z,4.76
2023-05-31T10:56:43.263Z,5.09
2023-05-31T10:57:43.507Z,4.89
2023-05-31T10:58:43.301Z,4.62
2023-05-31T10:59:43.347Z,5.28
2023-05-31T11:00:43.504Z,4.59
2023-05-31T11:01:43.473Z,4.04
2023-05-31T11:02:44.049Z,4.45
2023-05-31T11:03:43.616Z,4.09
2023-05-31T11:04:43.692Z,3.93
2023-05-31T11:05:43.666Z,3.80
2023-05-31T11:06:43.702Z,3.26
2023-05-31T11:07:43.970Z,3.33
2023-05-31T11:08:43.782Z,4.03
2023-05-31T11:09:43.843Z,3.15
2023-05-31T11:10:43.864Z,2.94
2023-05-31T11:11:43.891Z,3.36
2023-05-31T11:12:43.988Z,3.20
2023-05-31T11:13:43.946Z,3.68
2023-05-31T11:14:43.996Z,3.10
2023-05-31T11:15:43.991Z,3.54
2023-05-31T11:16:44.162Z,3.19
2023-05-31T11:17:44.531Z,3.44
2023-05-31T11:18:44.108Z,3.40
2023-05-31T11:19:44.081Z,3.28
2023-05-31T11:20:44.137Z,2.98
2023-05-31T11:21:44.124Z,2.95
2023-05-31T11:22:44.521Z,2.91
2023-05-31T11:23:44.130Z,3.06
2023-05-31T11:24:44.132Z,3.44
2023-05-31T11:25:44.185Z,3.00
2023-05-31T11:26:44.182Z,3.05
2023-05-31T11:27:44.506Z,2.42
2023-05-31T11:28:44.201Z,3.05
2023-05-31T11:29:44.204Z,2.86
2023-05-31T11:30:44.208Z,2.87
2023-05-31T11:31:44.247Z,2.76
2023-05-31T11:32:44.258Z,2.57
2023-05-31T11:33:57.497Z,2.79
2023-05-31T11:34:45.210Z,3.00
2023-05-31T11:35:44.279Z,2.92
2023-05-31T11:36:44.188Z,3.56
2023-05-31T11:37:44.543Z,3.12
2023-05-31T11:38:44.565Z,3.56
2023-05-31T11:39:44.234Z,3.01
2023-05-31T11:40:44.186Z,2.86
2023-05-31T11:41:44.194Z,3.08
2023-05-31T11:42:44.535Z,3.22
2023-05-31T11:43:44.173Z,2.60
2023-05-31T11:44:44.178Z,3.08
2023-05-31T11:45:44.152Z,2.93
2023-05-31T11:46:44.184Z,2.90
2023-05-31T11:47:44.197Z,2.76
2023-05-31T11:48:44.142Z,2.54
2023-05-31T11:49:44.109Z,2.75
2023-05-31T11:50:44.160Z,3.12
2023-05-31T11:51:44.187Z,2.56
2023-05-31T11:52:44.527Z,2.71
2023-05-31T11:53:44.228Z,2.96
2023-05-31T11:54:44.249Z,2.31
2023-05-31T11:55:44.307Z,2.94
2023-05-31T11:56:44.354Z,2.46
2023-05-31T11:57:44.549Z,2.40
2023-05-31T11:58:44.450Z,2.14
2023-05-31T11:59:44.498Z,2.30
2023-05-31T12:00:44.587Z,2.88
2023-05-31T12:01:44.610Z,2.22
2023-05-31T12:02:45.065Z,2.37
2023-05-31T12:03:45.033Z,2.01
2023-05-31T12:04:44.865Z,1.81
2023-05-31T12:05:44.832Z,2.20
2023-05-31T12:06:44.933Z,2.14
2023-05-31T12:07:45.013Z,2.35
2023-05-31T12:08:45.030Z,2.05
2023-05-31T12:09:45.095Z,2.43
2023-05-31T12:10:45.129Z,1.93
2023-05-31T12:11:45.174Z,2.15
2023-05-31T12:12:45.557Z,2.36
2023-05-31T12:13:45.208Z,2.17
2023-05-31T12:14:45.263Z,2.14
2023-05-31T12:15:45.321Z,2.38
2023-05-31T12:16:45.356Z,2.48
2023-05-31T12:17:45.522Z,1.75
2023-05-31T12:18:45.389Z,1.67
2023-05-31T12:19:45.327Z,1.93
2023-05-31T12:20:45.385Z,2.00
2023-05-31T12:21:45.387Z,2.05
2023-05-31T12:22:45.415Z,1.81
2023-05-31T12:23:45.396Z,1.44
2023-05-31T12:24:45.381Z,1.59
2023-05-31T12:25:45.445Z,1.63
2023-05-31T12:26:45.446Z,1.73
2023-05-31T12:27:46.634Z,1.77
2023-05-31T12:28:45.476Z,1.95
2023-05-31T12:29:45.529Z,2.91
2023-05-31T12:30:48.006Z,2.07
2023-05-31T12:31:45.577Z,1.96
2023-05-31T12:32:45.630Z,1.91
2023-05-31T12:33:45.531Z,1.65
2023-05-31T12:34:45.516Z,2.08
2023-05-31T12:35:45.497Z,1.47
2023-05-31T12:36:45.522Z,1.93
2023-05-31T12:37:45.521Z,1.68
2023-05-31T12:38:45.468Z,2.10
2023-05-31T12:39:45.494Z,1.72
2023-05-31T12:40:45.507Z,1.99
2023-05-31T12:41:45.498Z,1.57
2023-05-31T12:42:45.536Z,1.69
2023-05-31T12:43:45.462Z,2.04
2023-05-31T12:44:45.475Z,1.51
2023-05-31T12:45:45.477Z,1.88
2023-05-31T12:46:45.455Z,1.69
2023-05-31T12:47:45.520Z,1.70
2023-05-31T12:48:45.586Z,1.71
2023-05-31T12:49:45.418Z,1.90
2023-05-31T12:50:45.394Z,2.12
2023-05-31T12:51:45.427Z,1.50
2023-05-31T12:52:45.420Z,1.28
2023-05-31T12:53:45.365Z,1.57
2023-05-31T12:54:45.408Z,1.99
2023-05-31T12:55:45.366Z,1.62
2023-05-31T12:56:45.377Z,1.97
2023-05-31T12:57:45.558Z,1.48
2023-05-31T12:58:45.372Z,1.70
2023-05-31T12:59:45.363Z,1.35
2023-05-31T13:00:45.322Z,1.72
2023-05-31T13:01:52.465Z,1.59
2023-05-31T13:02:45.621Z,1.76
2023-05-31T13:03:45.399Z,1.86
2023-05-31T13:04:45.323Z,1.77
2023-05-31T13:05:45.343Z,1.44
2023-05-31T13:06:45.324Z,1.35
2023-05-31T13:07:45.299Z,1.59
2023-05-31T13:08:45.375Z,1.50
2023-05-31T13:09:45.316Z,1.69
2023-05-31T13:10:45.304Z,1.56
2023-05-31T13:11:45.295Z,1.94
2023-05-31T13:12:45.301Z,2.05
2023-05-31T13:13:45.274Z,1.85
2023-05-31T13:14:45.246Z,1.83
2023-05-31T13:15:45.244Z,1.50
2023-05-31T13:16:45.240Z,1.58
2023-05-31T13:17:45.249Z,1.46
2023-05-31T13:18:45.236Z,1.76
2023-05-31T13:19:53.234Z,1.83